createdAt,value
2023-05-05T00:00:14.943Z,81.29
2023-05-05T00:01:14.890Z,81.50
2023-05-05T00:02:14.680Z,81.13
2023-05-05T00:03:14.595Z,81.09
2023-05-05T00:04:15.017Z,81.85
2023-05-05T00:05:14.623Z,81.74
2023-05-05T00:06:14.570Z,82.05
2023-05-05T00:07:15.346Z,80.92
2023-05-05T00:08:14.189Z,81.13
2023-05-05T00:09:14.637Z,81.43
2023-05-05T00:10:14.250Z,80.72
2023-05-05T00:11:14.301Z,80.17
2023-05-05T00:12:14.096Z,80.17
2023-05-05T00:13:14.435Z,80.47
2023-05-05T00:14:14.839Z,80.41
2023-05-05T00:15:15.779Z,80.72
2023-05-05T00:16:14.653Z,80.92
2023-05-05T00:17:14.669Z,81.23
2023-05-05T00:18:14.499Z,80.92
2023-05-05T00:19:14.164Z,81.02
2023-05-05T00:20:14.518Z,81.23
2023-05-05T00:21:14.318Z,81.02
2023-05-05T00:22:15.170Z,80.82
2023-05-05T00:23:14.598Z,80.88
2023-05-05T00:24:14.530Z,80.82
2023-05-05T00:25:17.068Z,80.72
2023-05-05T00:26:14.200Z,80.92
2023-05-05T00:27:14.050Z,81.27
2023-05-05T00:28:14.848Z,81.06
2023-05-05T00:29:13.984Z,81.57
2023-05-05T00:32:53.395Z,82.23
2023-05-05T00:33:53.252Z,82.54
2023-05-05T00:34:53.220Z,82.75
2023-05-05T00:35:53.210Z,82.81
2023-05-05T00:36:53.164Z,82.75
2023-05-05T00:37:53.281Z,82.03
2023-05-05T00:38:53.149Z,81.78
2023-05-05T00:39:53.793Z,81.99
2023-05-05T00:40:53.284Z,81.99
2023-05-05T00:41:53.103Z,81.68
2023-05-05T00:44:15.938Z,82.23
2023-05-05T00:45:15.842Z,82.23
2023-05-05T00:46:15.814Z,82.03
2023-05-05T00:47:15.749Z,82.03
2023-05-05T00:48:15.729Z,81.71
2023-05-05T00:49:15.704Z,81.92
2023-05-05T00:50:15.688Z,82.23
2023-05-05T00:51:15.646Z,81.82
2023-05-05T00:52:15.619Z,82.95
2023-05-05T00:53:15.605Z,83.15
2023-05-05T00:54:15.601Z,82.43
2023-05-05T00:55:15.599Z,82.64
2023-05-05T00:56:15.567Z,82.33
2023-05-05T00:57:15.552Z,82.84
2023-05-05T00:58:15.547Z,82.03
2023-05-05T00:59:15.545Z,81.71
2023-05-05T01:00:15.548Z,81.82
2023-05-05T01:01:15.617Z,82.13
2023-05-05T01:02:15.494Z,82.03
2023-05-05T01:03:15.639Z,82.75
2023-05-05T01:04:15.463Z,82.43
2023-05-05T01:05:15.486Z,82.23
2023-05-05T01:06:15.452Z,81.92
2023-05-05T01:07:15.431Z,82.54
2023-05-05T01:08:15.445Z,83.05
2023-05-05T01:09:15.401Z,82.43
2023-05-05T01:10:19.806Z,81.92
2023-05-05T01:11:15.388Z,81.92
2023-05-05T01:12:15.380Z,82.09
2023-05-05T01:13:15.406Z,81.68
2023-05-05T01:14:15.341Z,81.71
2023-05-05T01:15:15.326Z,82.54
2023-05-05T01:16:15.430Z,82.33
2023-05-05T01:17:15.310Z,83.29
2023-05-05T01:18:15.298Z,83.36
2023-05-05T01:19:15.282Z,83.26
2023-05-05T01:20:15.272Z,82.54
2023-05-05T01:21:15.279Z,81.92
2023-05-05T01:22:15.249Z,81.88
2023-05-05T01:23:15.232Z,81.37
2023-05-05T01:24:15.233Z,81.88
2023-05-05T01:25:15.210Z,81.88
2023-05-05T01:26:15.248Z,82.29
2023-05-05T01:27:15.186Z,81.99
2023-05-05T01:28:15.197Z,82.03
2023-05-05T01:29:15.165Z,81.99
2023-05-05T01:30:15.154Z,81.78
2023-05-05T01:31:15.160Z,81.99
2023-05-05T01:32:15.150Z,82.19
2023-05-05T01:33:15.113Z,81.99
2023-05-05T01:34:15.107Z,81.78
2023-05-05T01:35:15.097Z,81.78
2023-05-05T01:36:15.072Z,82.70
2023-05-05T01:38:43.793Z,82.19
2023-05-05T01:39:43.769Z,81.99
2023-05-05T01:40:56.171Z,81.37
2023-05-05T01:41:44.160Z,81.88
2023-05-05T01:42:44.049Z,81.99
2023-05-05T01:43:43.704Z,81.88
2023-05-05T01:44:43.764Z,81.37
2023-05-05T01:45:43.677Z,80.92
2023-05-05T01:46:43.684Z,81.13
2023-05-05T01:47:53.886Z,80.51
2023-05-05T01:48:43.751Z,80.58
2023-05-05T01:49:55.022Z,80.27
2023-05-05T01:50:46.181Z,79.75
2023-05-05T01:51:44.917Z,80.07
2023-05-05T01:52:45.030Z,80.17
2023-05-05T01:53:45.028Z,79.75
2023-05-05T01:54:44.876Z,79.86
2023-05-05T01:55:44.806Z,79.52
2023-05-05T01:56:44.851Z,79.72
2023-05-05T01:57:45.582Z,79.62
2023-05-05T01:58:45.039Z,79.21
2023-05-05T01:59:44.938Z,79.17
2023-05-05T02:00:44.823Z,79.58
2023-05-05T02:01:44.940Z,79.11
2023-05-05T02:02:45.003Z,79.17
2023-05-05T02:03:44.961Z,79.38
2023-05-05T02:04:45.045Z,79.27
2023-05-05T02:05:44.693Z,79.17
2023-05-05T02:06:44.719Z,79.58
2023-05-05T02:07:44.690Z,79.17
2023-05-05T02:08:44.657Z,78.56
2023-05-05T02:09:44.705Z,78.15
2023-05-05T02:10:44.698Z,77.64
2023-05-05T02:11:44.763Z,78.25
2023-05-05T02:12:44.792Z,77.50
2023-05-05T02:13:44.717Z,76.47
2023-05-05T02:14:44.873Z,75.42
2023-05-05T02:15:44.527Z,74.69
2023-05-05T02:16:44.895Z,73.94
2023-05-05T02:17:44.832Z,74.26
2023-05-05T02:18:44.579Z,74.11
2023-05-05T02:19:44.597Z,74.22
2023-05-05T02:20:44.461Z,74.97
2023-05-05T02:21:44.447Z,75.48
2023-05-05T02:23:07.008Z,75.89
2023-05-05T02:23:45.378Z,75.89
2023-05-05T02:24:44.646Z,76.03
2023-05-05T02:25:44.379Z,76.75
2023-05-05T02:26:44.357Z,76.64
2023-05-05T02:27:44.314Z,75.42
2023-05-05T02:28:44.267Z,75.93
2023-05-05T02:29:44.315Z,75.59
2023-05-05T02:30:44.377Z,75.99
2023-05-05T02:31:44.348Z,76.20
2023-05-05T02:32:44.251Z,75.38
2023-05-05T02:33:44.254Z,74.35
2023-05-05T02:34:44.263Z,74.26
2023-05-05T02:35:44.136Z,75.48
2023-05-05T02:36:44.171Z,73.81
2023-05-05T02:37:44.158Z,73.61
2023-05-05T02:38:44.209Z,74.22
2023-05-05T02:39:44.122Z,74.11
2023-05-05T02:40:44.189Z,75.14
2023-05-05T02:41:44.148Z,75.59
2023-05-05T02:42:44.110Z,76.09
2023-05-05T02:43:45.032Z,76.75
2023-05-05T02:44:44.021Z,77.15
2023-05-05T02:45:44.080Z,76.54
2023-05-05T02:46:44.076Z,76.27
2023-05-05T02:47:44.045Z,77.67
2023-05-05T02:48:43.996Z,77.36
2023-05-05T02:52:01.010Z,77.26
2023-05-05T02:53:01.204Z,77.56
2023-05-05T02:54:01.157Z,77.56
2023-05-05T02:55:00.805Z,78.04
2023-05-05T02:56:00.719Z,78.08
2023-05-05T02:57:00.685Z,78.34
2023-05-05T02:58:00.725Z,78.24
2023-05-05T03:00:10.835Z,77.87
2023-05-05T03:01:10.759Z,77.87
2023-05-05T03:02:10.760Z,78.24
2023-05-05T03:03:10.765Z,78.14
2023-05-05T03:04:10.691Z,77.42
2023-05-05T03:05:21.495Z,77.94
2023-05-05T03:06:11.032Z,77.22
2023-05-05T03:07:10.851Z,77.67
2023-05-05T03:08:10.768Z,77.73
2023-05-05T03:09:10.612Z,77.46
2023-05-05T03:10:10.792Z,77.46
2023-05-05T03:11:20.831Z,78.04
2023-05-05T03:12:10.665Z,77.36
2023-05-05T03:13:10.746Z,77.53
2023-05-05T03:14:10.737Z,77.87
2023-05-05T03:15:10.821Z,77.76
2023-05-05T03:16:10.746Z,77.53
2023-05-05T03:17:20.763Z,78.08
2023-05-05T03:18:11.222Z,77.01
2023-05-05T03:19:10.656Z,76.43
2023-05-05T03:20:10.511Z,76.09
2023-05-05T03:21:10.527Z,75.79
2023-05-05T03:22:10.463Z,76.20
2023-05-05T03:23:20.756Z,76.30
2023-05-05T03:24:10.522Z,76.20
2023-05-05T03:25:10.528Z,76.34
2023-05-05T03:26:10.400Z,76.84
2023-05-05T03:27:10.381Z,75.93
2023-05-05T03:28:10.421Z,76.64
2023-05-05T03:29:20.596Z,76.43
2023-05-05T03:30:10.638Z,76.95
2023-05-05T03:31:10.506Z,77.76
2023-05-05T03:32:10.484Z,77.60
2023-05-05T03:33:10.343Z,77.76
2023-05-05T03:34:10.335Z,77.70
2023-05-05T03:35:20.487Z,77.87
2023-05-05T03:36:10.355Z,77.80
2023-05-05T03:37:10.390Z,75.59
2023-05-05T03:38:10.230Z,74.35
2023-05-05T03:39:10.237Z,74.15
2023-05-05T03:40:10.406Z,74.35
2023-05-05T03:41:20.559Z,73.94
2023-05-05T03:42:10.358Z,74.15
2023-05-05T03:43:10.254Z,75.17
2023-05-05T03:44:10.194Z,75.07
2023-05-05T03:45:10.320Z,75.79
2023-05-05T03:46:10.169Z,75.68
2023-05-05T03:47:20.332Z,75.79
2023-05-05T03:48:10.186Z,76.03
2023-05-05T03:49:10.135Z,75.93
2023-05-05T03:50:10.262Z,76.17
2023-05-05T03:51:10.073Z,76.98
2023-05-05T03:52:10.143Z,76.68
2023-05-05T03:53:20.275Z,76.68
2023-05-05T03:54:10.200Z,76.37
2023-05-05T03:55:10.166Z,77.26
2023-05-05T03:56:10.131Z,77.70
2023-05-05T03:57:10.056Z,77.70
2023-05-05T03:58:09.982Z,77.60
2023-05-05T03:59:20.366Z,77.50
2023-05-05T04:00:10.047Z,77.29
2023-05-05T04:01:10.116Z,77.39
2023-05-05T04:02:10.070Z,77.12
2023-05-05T04:03:10.075Z,76.98
2023-05-05T04:04:09.991Z,78.25
2023-05-05T04:05:20.217Z,78.25
2023-05-05T04:06:10.044Z,78.35
2023-05-05T04:07:10.070Z,77.73
2023-05-05T04:08:10.004Z,77.53
2023-05-05T04:09:09.897Z,77.80
2023-05-05T04:10:10.048Z,76.17
2023-05-05T04:11:20.057Z,73.03
2023-05-05T04:12:09.993Z,71.90
2023-05-05T04:13:09.970Z,73.81
2023-05-05T04:14:09.823Z,74.02
2023-05-05T04:15:09.766Z,74.32
2023-05-05T04:16:09.800Z,74.52
2023-05-05T04:17:20.173Z,74.63
2023-05-05T04:18:10.033Z,74.32
2023-05-05T04:19:09.815Z,75.99
2023-05-05T04:20:09.987Z,75.99
2023-05-05T04:21:09.745Z,77.22
2023-05-05T04:22:09.801Z,76.64
2023-05-05T04:23:20.083Z,75.93
2023-05-05T04:24:09.793Z,75.93
2023-05-05T04:25:09.787Z,75.93
2023-05-05T04:26:09.774Z,75.38
2023-05-05T04:27:09.607Z,75.68
2023-05-05T04:28:09.716Z,76.30
2023-05-05T04:29:19.867Z,75.89
2023-05-05T04:30:09.829Z,76.61
2023-05-05T04:31:09.665Z,76.20
2023-05-05T04:32:18.949Z,76.20
2023-05-05T04:33:10.130Z,75.59
2023-05-05T04:34:09.667Z,74.63
2023-05-05T04:35:19.705Z,74.84
2023-05-05T04:36:09.668Z,73.81
2023-05-05T04:39:24.492Z,74.52
2023-05-05T04:40:24.683Z,73.71
2023-05-05T04:41:24.451Z,73.81
2023-05-05T04:42:24.370Z,73.91
2023-05-05T04:43:25.706Z,73.91
2023-05-05T04:44:25.911Z,74.08
2023-05-05T04:45:25.851Z,73.36
2023-05-05T04:46:25.920Z,73.36
2023-05-05T04:47:25.712Z,73.94
2023-05-05T04:48:25.617Z,73.44
2023-05-05T04:49:25.708Z,73.33
2023-05-05T04:50:25.652Z,73.33
2023-05-05T04:51:25.818Z,73.03
2023-05-05T04:52:25.692Z,73.13
2023-05-05T04:53:25.674Z,73.44
2023-05-05T04:54:25.671Z,74.05
2023-05-05T04:55:25.640Z,73.74
2023-05-05T04:56:25.590Z,73.74
2023-05-05T04:57:25.831Z,73.94
2023-05-05T04:58:25.601Z,74.05
2023-05-05T04:59:25.356Z,73.84
2023-05-05T05:00:26.089Z,73.50
2023-05-05T05:01:25.416Z,73.91
2023-05-05T05:02:25.445Z,73.91
2023-05-05T05:03:25.386Z,74.35
2023-05-05T05:04:25.275Z,73.94
2023-05-05T05:05:25.292Z,72.99
2023-05-05T05:06:25.283Z,72.79
2023-05-05T05:07:25.215Z,73.40
2023-05-05T05:08:25.167Z,71.67
2023-05-05T05:09:25.179Z,72.28
2023-05-05T05:10:25.223Z,71.43
2023-05-05T05:11:25.317Z,71.39
2023-05-05T05:12:25.241Z,70.54
2023-05-05T05:13:25.417Z,66.35
2023-05-05T05:14:25.303Z,63.40
2023-05-05T05:15:25.153Z,61.05
2023-05-05T05:16:25.234Z,59.05
2023-05-05T05:17:25.162Z,58.05
2023-05-05T05:18:25.174Z,56.61
2023-05-05T05:19:25.150Z,55.74
2023-05-05T05:20:25.203Z,54.76
2023-05-05T05:21:25.222Z,53.55
2023-05-05T05:22:25.181Z,54.41
2023-05-05T05:23:25.116Z,54.81
2023-05-05T05:24:25.128Z,54.71
2023-05-05T05:25:25.049Z,56.27
2023-05-05T05:26:25.097Z,58.23
2023-05-05T05:27:25.092Z,60.08
2023-05-05T05:28:25.151Z,62.81
2023-05-05T05:29:25.064Z,62.63
2023-05-05T05:30:25.025Z,61.07
2023-05-05T05:31:25.092Z,63.20
2023-05-05T05:32:24.996Z,62.90
2023-05-05T05:33:25.242Z,62.79
2023-05-05T05:34:25.247Z,63.48
2023-05-05T05:35:25.232Z,60.55
2023-05-05T05:36:25.320Z,59.66
2023-05-05T05:37:25.247Z,59.38
2023-05-05T05:38:25.231Z,59.27
2023-05-05T05:39:25.140Z,59.36
2023-05-05T05:42:54.537Z,61.55
2023-05-05T05:43:54.875Z,60.74
2023-05-05T05:44:54.297Z,62.26
2023-05-05T05:45:54.342Z,62.18
2023-05-05T05:46:54.286Z,61.68
2023-05-05T05:47:54.338Z,62.41
2023-05-05T05:48:54.154Z,64.45
2023-05-05T05:49:54.196Z,65.30
2023-05-05T05:50:54.125Z,64.07
2023-05-05T05:51:54.172Z,62.85
2023-05-05T05:52:54.141Z,62.26
2023-05-05T05:53:55.106Z,61.75
2023-05-05T05:54:54.269Z,62.29
2023-05-05T05:55:54.136Z,64.07
2023-05-05T05:56:54.141Z,63.67
2023-05-05T05:57:54.149Z,63.84
2023-05-05T05:58:54.138Z,61.82
2023-05-05T05:59:54.052Z,58.34
2023-05-05T06:00:53.904Z,55.62
2023-05-05T06:01:54.017Z,56.13
2023-05-05T06:02:54.172Z,56.18
2023-05-05T06:03:54.113Z,56.68
2023-05-05T06:04:54.114Z,56.58
2023-05-05T06:05:54.083Z,54.86
2023-05-05T06:06:54.134Z,54.76
2023-05-05T06:10:27.357Z,54.36
2023-05-05T06:11:24.760Z,52.74
2023-05-05T06:12:24.624Z,52.51
2023-05-05T06:13:24.816Z,52.04
2023-05-05T06:14:24.551Z,54.58
2023-05-05T06:15:24.568Z,55.72
2023-05-05T06:16:24.602Z,53.88
2023-05-05T06:17:24.532Z,54.23
2023-05-05T06:18:24.553Z,55.24
2023-05-05T06:19:24.497Z,59.14
2023-05-05T06:20:24.527Z,56.61
2023-05-05T06:21:24.663Z,58.16
2023-05-05T06:22:24.473Z,59.00
2023-05-05T06:23:24.448Z,59.00
2023-05-05T06:24:24.431Z,59.25
2023-05-05T06:25:24.419Z,55.87
2023-05-05T06:26:24.447Z,56.32
2023-05-05T06:27:24.432Z,56.88
2023-05-05T06:28:24.396Z,57.42
2023-05-05T06:29:24.405Z,57.14
2023-05-05T06:30:24.365Z,58.65
2023-05-05T06:31:24.401Z,59.14
2023-05-05T06:32:24.439Z,59.55
2023-05-05T06:33:24.370Z,59.05
2023-05-05T06:34:24.323Z,61.33
2023-05-05T06:35:24.300Z,61.56
2023-05-05T06:36:24.317Z,61.94
2023-05-05T06:37:24.275Z,61.10
2023-05-05T06:38:24.287Z,59.81
2023-05-05T06:39:24.254Z,61.18
2023-05-05T06:40:24.243Z,64.94
2023-05-05T06:41:24.227Z,63.14
2023-05-05T06:42:24.238Z,65.95
2023-05-05T06:43:24.234Z,65.72
2023-05-05T06:44:24.279Z,65.45
2023-05-05T06:45:24.179Z,63.37
2023-05-05T06:46:25.313Z,59.47
2023-05-05T06:47:25.316Z,58.67
2023-05-05T06:48:25.305Z,61.83
2023-05-05T06:49:25.237Z,61.80
2023-05-05T06:50:25.248Z,58.56
2023-05-05T06:51:25.288Z,59.07
2023-05-05T06:52:25.208Z,58.62
2023-05-05T06:53:25.204Z,59.86
2023-05-05T06:54:25.214Z,59.63
2023-05-05T06:55:25.184Z,60.11
2023-05-05T06:56:25.321Z,59.38
2023-05-05T06:57:25.156Z,58.54
2023-05-05T06:58:25.231Z,59.55
2023-05-05T06:59:25.190Z,57.90
2023-05-05T07:00:25.125Z,57.92
2023-05-05T07:01:25.199Z,56.15
2023-05-05T07:02:26.843Z,55.04
2023-05-05T07:03:26.117Z,55.36
2023-05-05T07:04:25.122Z,54.38
2023-05-05T07:05:25.077Z,52.57
2023-05-05T07:06:25.047Z,53.58
2023-05-05T07:07:25.062Z,55.32
2023-05-05T07:08:25.041Z,56.15
2023-05-05T07:09:25.020Z,56.78
2023-05-05T07:10:25.058Z,58.53
2023-05-05T07:11:24.997Z,58.33
2023-05-05T07:12:24.984Z,58.43
2023-05-05T07:13:25.133Z,59.21
2023-05-05T07:14:24.962Z,58.80
2023-05-05T07:15:28.774Z,57.39
2023-05-05T07:16:25.970Z,58.05
2023-05-05T07:17:24.952Z,58.45
2023-05-05T07:18:24.923Z,59.36
2023-05-05T07:19:24.908Z,58.96
2023-05-05T07:20:24.884Z,59.29
2023-05-05T07:21:24.904Z,58.18
2023-05-05T07:22:24.858Z,58.69
2023-05-05T07:23:24.977Z,62.08
2023-05-05T07:24:24.837Z,62.89
2023-05-05T07:25:24.812Z,61.17
2023-05-05T07:26:24.861Z,61.04
2023-05-05T07:27:24.793Z,61.41
2023-05-05T07:28:24.891Z,60.71
2023-05-05T07:29:24.900Z,60.58
2023-05-05T07:30:25.102Z,57.34
2023-05-05T07:31:24.838Z,57.06
2023-05-05T07:32:24.771Z,58.67
2023-05-05T07:33:24.719Z,56.63
2023-05-05T07:34:24.728Z,56.23
2023-05-05T07:35:24.692Z,57.84
2023-05-05T07:36:24.687Z,56.76
2023-05-05T07:37:24.724Z,56.88
2023-05-05T07:38:24.685Z,57.87
2023-05-05T07:39:24.713Z,58.69
2023-05-05T07:40:24.643Z,55.66
2023-05-05T07:41:24.628Z,57.12
2023-05-05T07:42:24.665Z,56.31
2023-05-05T07:43:24.585Z,55.58
2023-05-05T07:44:24.577Z,52.34
2023-05-05T07:45:24.592Z,54.43
2023-05-05T07:46:24.564Z,50.61
2023-05-05T07:47:24.558Z,52.24
2023-05-05T07:48:24.562Z,51.97
2023-05-05T07:49:24.520Z,53.20
2023-05-05T07:50:24.525Z,53.34
2023-05-05T07:51:24.488Z,52.84
2023-05-05T07:52:36.999Z,53.42
2023-05-05T07:53:24.945Z,57.68
2023-05-05T07:54:24.469Z,59.42
2023-05-05T07:55:24.507Z,59.91
2023-05-05T07:56:24.427Z,61.62
2023-05-05T07:57:24.441Z,67.72
2023-05-05T07:58:24.411Z,66.44
2023-05-05T07:59:24.411Z,63.90
2023-05-05T08:00:24.389Z,67.05
2023-05-05T08:01:24.386Z,65.89
2023-05-05T08:02:24.786Z,65.92
2023-05-05T08:03:24.991Z,65.82
2023-05-05T08:04:24.385Z,67.31
2023-05-05T08:05:24.338Z,63.96
2023-05-05T08:06:24.313Z,63.32
2023-05-05T08:07:24.310Z,63.70
2023-05-05T08:08:24.322Z,61.49
2023-05-05T08:09:24.285Z,61.66
2023-05-05T08:10:24.328Z,60.93
2023-05-05T08:11:24.318Z,60.22
2023-05-05T08:12:24.244Z,64.15
2023-05-05T08:13:24.236Z,64.04
2023-05-05T08:14:24.261Z,64.45
2023-05-05T08:15:24.201Z,64.25
2023-05-05T08:16:24.411Z,62.70
2023-05-05T08:17:24.186Z,60.05
2023-05-05T08:18:24.166Z,61.73
2023-05-05T08:19:29.192Z,61.92
2023-05-05T08:20:24.156Z,63.24
2023-05-05T08:21:24.148Z,65.73
2023-05-05T08:22:24.125Z,67.48
2023-05-05T08:23:24.112Z,68.06
2023-05-05T08:24:24.108Z,68.43
2023-05-05T08:25:24.114Z,64.45
2023-05-05T08:26:24.073Z,64.21
2023-05-05T08:27:24.140Z,65.86
2023-05-05T08:28:24.063Z,66.13
2023-05-05T08:29:24.047Z,63.17
2023-05-05T08:30:24.109Z,63.84
2023-05-05T08:31:24.211Z,64.02
2023-05-05T08:32:27.858Z,61.76
2023-05-05T08:33:24.133Z,62.87
2023-05-05T08:34:24.503Z,65.50
2023-05-05T08:35:24.500Z,63.05
2023-05-05T08:36:23.977Z,61.30
2023-05-05T08:37:24.332Z,62.71
2023-05-05T08:38:23.944Z,63.45
2023-05-05T08:39:26.119Z,65.84
2023-05-05T08:40:23.965Z,66.85
2023-05-05T08:41:23.900Z,66.24
2023-05-05T08:42:36.265Z,64.45
2023-05-05T08:43:24.566Z,65.16
2023-05-05T08:44:23.874Z,65.59
2023-05-05T08:45:23.868Z,67.01
2023-05-05T08:46:25.386Z,67.99
2023-05-05T08:47:23.911Z,66.75
2023-05-05T08:48:24.606Z,67.02
2023-05-05T08:49:23.792Z,63.18
2023-05-05T08:50:23.919Z,63.38
2023-05-05T08:51:23.822Z,64.67
2023-05-05T08:52:23.810Z,62.87
2023-05-05T08:53:23.746Z,65.17
2023-05-05T08:54:24.569Z,63.85
2023-05-05T08:55:24.223Z,64.16
2023-05-05T08:56:24.184Z,63.02
2023-05-05T08:57:24.696Z,63.73
2023-05-05T08:58:23.861Z,62.79
2023-05-05T08:59:24.173Z,62.88
2023-05-05T09:00:24.195Z,64.10
2023-05-05T09:01:24.800Z,63.06
2023-05-05T09:02:27.313Z,62.76
2023-05-05T09:03:24.135Z,64.07
2023-05-05T09:04:23.778Z,63.90
2023-05-05T09:05:24.299Z,64.00
2023-05-05T09:06:23.769Z,64.30
2023-05-05T09:07:23.750Z,63.12
2023-05-05T09:08:23.718Z,63.29
2023-05-05T09:09:27.494Z,65.64
2023-05-05T09:10:23.569Z,67.29
2023-05-05T09:11:23.627Z,67.22
2023-05-05T09:12:23.555Z,66.35
2023-05-05T09:13:27.574Z,66.95
2023-05-05T09:14:24.535Z,67.46
2023-05-05T09:15:23.599Z,67.76
2023-05-05T09:16:23.526Z,65.57
2023-05-05T09:17:26.015Z,65.07
2023-05-05T09:18:27.039Z,65.24
2023-05-05T09:19:25.215Z,66.75
2023-05-05T09:20:26.432Z,66.39
2023-05-05T09:21:24.090Z,63.50
2023-05-05T09:22:25.377Z,61.69
2023-05-05T09:23:24.778Z,64.31
2023-05-05T09:24:24.285Z,62.97
2023-05-05T09:25:23.854Z,60.85
2023-05-05T09:26:24.317Z,60.05
2023-05-05T09:27:23.838Z,61.33
2023-05-05T09:28:23.397Z,59.86
2023-05-05T09:29:23.696Z,59.26
2023-05-05T09:30:24.132Z,61.03
2023-05-05T09:31:26.997Z,60.72
2023-05-05T09:32:23.474Z,60.85
2023-05-05T09:33:23.327Z,60.52
2023-05-05T09:34:23.283Z,61.27
2023-05-05T09:35:23.476Z,61.14
2023-05-05T09:36:23.231Z,63.62
2023-05-05T09:37:23.991Z,64.18
2023-05-05T09:38:23.229Z,62.94
2023-05-05T09:39:23.292Z,64.95
2023-05-05T09:40:24.179Z,64.82
2023-05-05T09:41:23.173Z,63.89
2023-05-05T09:42:23.357Z,62.88
2023-05-05T09:43:23.148Z,65.06
2023-05-05T09:44:23.165Z,65.64
2023-05-05T09:45:32.228Z,63.90
2023-05-05T09:46:28.180Z,64.10
2023-05-05T09:47:43.898Z,64.37
2023-05-05T09:48:32.397Z,63.29
2023-05-05T09:49:49.167Z,64.03
2023-05-05T09:50:25.178Z,64.63
2023-05-05T09:51:27.846Z,65.50
2023-05-05T09:52:24.139Z,64.43
2023-05-05T09:53:23.467Z,63.04
2023-05-05T09:54:23.106Z,62.38
2023-05-05T09:55:23.293Z,62.55
2023-05-05T09:56:23.131Z,62.42
2023-05-05T09:57:23.123Z,62.99
2023-05-05T09:58:23.245Z,60.35
2023-05-05T09:59:23.156Z,62.29
2023-05-05T10:00:23.188Z,58.99
2023-05-05T10:01:22.924Z,62.32
2023-05-05T10:02:22.902Z,61.62
2023-05-05T10:03:26.500Z,61.92
2023-05-05T10:04:23.123Z,62.38
2023-05-05T10:06:10.947Z,64.01
2023-05-05T10:06:28.240Z,64.78
2023-05-05T10:07:23.906Z,62.92
2023-05-05T10:08:22.973Z,62.92
2023-05-05T10:09:22.947Z,65.39
2023-05-05T10:13:25.397Z,57.82
2023-05-05T10:14:24.613Z,57.00
2023-05-05T10:15:24.563Z,55.98
2023-05-05T10:16:24.802Z,55.43
2023-05-05T10:17:24.600Z,54.58
2023-05-05T10:18:24.685Z,54.86
2023-05-05T10:19:24.573Z,56.31
2023-05-05T10:20:24.610Z,57.74
2023-05-05T10:21:25.719Z,57.14
2023-05-05T10:22:25.798Z,57.26
2023-05-05T10:23:25.552Z,58.49
2023-05-05T10:24:25.656Z,57.93
2023-05-05T10:25:25.559Z,58.54
2023-05-05T10:26:25.500Z,58.11
2023-05-05T10:27:25.571Z,58.21
2023-05-05T10:28:25.579Z,59.94
2023-05-05T10:29:25.651Z,58.99
2023-05-05T10:30:25.768Z,60.15
2023-05-05T10:31:26.721Z,60.18
2023-05-05T10:32:50.142Z,62.07
2023-05-05T10:33:31.045Z,64.07
2023-05-05T10:34:30.220Z,63.07
2023-05-05T10:35:37.267Z,63.60
2023-05-05T10:36:31.032Z,61.02
2023-05-05T10:37:27.770Z,61.55
2023-05-05T10:38:44.359Z,63.32
2023-05-05T10:39:25.368Z,62.62
2023-05-05T10:40:25.354Z,61.99
2023-05-05T10:41:32.541Z,60.48
2023-05-05T10:42:26.319Z,60.88
2023-05-05T12:04:58.314Z,87.01
2023-05-05T12:05:59.712Z,88.02
2023-05-05T12:06:59.458Z,86.81
2023-05-05T12:08:07.273Z,87.71
2023-05-05T12:08:59.761Z,88.32
2023-05-05T13:39:00.844Z,87.68
2023-05-05T13:40:00.929Z,87.27
2023-05-05T13:41:00.860Z,85.42
2023-05-05T13:55:04.315Z,81.41
2023-05-05T13:56:12.904Z,80.57
2023-05-05T14:01:43.408Z,77.99
2023-05-05T14:02:45.226Z,77.69
2023-05-05T14:03:43.295Z,79.13
2023-05-05T14:04:43.266Z,78.39
2023-05-05T14:05:43.212Z,77.48
2023-05-05T14:06:43.222Z,78.66
2023-05-05T14:07:43.177Z,76.75
2023-05-05T14:08:43.165Z,74.77
2023-05-05T14:09:43.208Z,75.01
2023-05-05T14:10:45.427Z,74.85
2023-05-05T14:11:43.132Z,73.98
2023-05-05T14:12:43.187Z,77.94
2023-05-05T14:13:44.262Z,77.26
2023-05-05T14:14:44.222Z,75.68
2023-05-05T14:15:44.236Z,75.65
2023-05-05T14:16:44.285Z,76.25
2023-05-05T14:17:44.275Z,75.82
2023-05-05T14:18:44.625Z,76.76
2023-05-05T14:19:44.213Z,76.97
2023-05-05T14:20:44.229Z,77.47
2023-05-05T14:21:44.288Z,77.87
2023-05-05T14:22:44.261Z,77.63
2023-05-05T14:23:44.147Z,76.46
2023-05-05T14:24:44.149Z,78.51
2023-05-05T14:25:44.135Z,78.05
2023-05-05T14:26:44.176Z,79.05
2023-05-05T14:27:45.070Z,78.75
2023-05-05T14:28:44.304Z,79.76
2023-05-05T14:29:44.076Z,79.56
2023-05-05T14:30:44.050Z,80.77
2023-05-05T14:31:44.111Z,79.49
2023-05-05T14:32:44.042Z,81.01
2023-05-05T14:33:44.014Z,81.10
2023-05-05T14:34:44.019Z,81.79
2023-05-05T14:35:44.058Z,84.15
2023-05-05T14:36:44.037Z,85.70
2023-05-05T14:37:44.160Z,85.76
2023-05-05T14:38:44.002Z,85.31
2023-05-05T14:39:44.004Z,85.02
2023-05-05T14:40:44.375Z,84.75
2023-05-05T14:41:43.951Z,85.02
2023-05-05T14:42:44.005Z,85.22
2023-05-05T14:43:43.936Z,85.82
2023-05-05T14:44:43.881Z,84.81
2023-05-05T14:45:43.942Z,84.41
2023-05-05T14:46:45.969Z,85.60
2023-05-05T14:47:44.878Z,86.75
2023-05-05T14:48:43.851Z,87.56
2023-05-05T14:49:43.921Z,87.76
2023-05-05T14:50:43.848Z,88.37
2023-05-05T14:51:43.838Z,87.72
2023-05-05T14:52:43.826Z,86.81
2023-05-05T14:53:43.855Z,86.51
2023-05-05T14:54:43.752Z,87.27
2023-05-05T14:55:43.786Z,87.18
2023-05-05T14:56:43.693Z,86.77
2023-05-05T14:57:43.785Z,85.66
2023-05-05T14:58:43.875Z,86.10
2023-05-05T14:59:43.782Z,87.21
2023-05-05T15:00:43.768Z,87.07
2023-05-05T15:01:43.710Z,87.18
2023-05-05T15:02:45.021Z,87.07
2023-05-05T15:03:43.948Z,87.03
2023-05-05T15:04:43.581Z,87.58
2023-05-05T15:05:43.685Z,87.78
2023-05-05T15:06:43.568Z,87.58
2023-05-05T15:07:43.567Z,88.23
2023-05-05T15:08:43.572Z,88.32
2023-05-05T15:09:43.888Z,88.73
2023-05-05T15:10:43.514Z,89.13
2023-05-05T15:11:43.533Z,89.07
2023-05-05T15:12:43.592Z,90.19
2023-05-05T15:13:43.511Z,90.08
2023-05-05T15:14:43.601Z,90.23
2023-05-05T15:15:43.487Z,90.23
2023-05-05T15:16:43.418Z,89.01
2023-05-05T15:17:43.462Z,89.87
2023-05-05T15:18:43.432Z,90.01
2023-05-05T15:19:43.392Z,89.61
2023-05-05T15:20:43.440Z,89.91
2023-05-05T15:21:43.381Z,90.76
2023-05-05T15:22:43.367Z,91.67
2023-05-05T15:23:43.342Z,90.25
2023-05-05T15:24:43.331Z,90.40
2023-05-05T15:26:18.734Z,90.70
2023-05-05T15:26:43.663Z,91.00
2023-05-05T15:27:46.806Z,92.61
2023-05-05T15:28:43.275Z,93.42
2023-05-05T15:29:43.288Z,93.22
2023-05-05T15:30:43.453Z,93.62
2023-05-05T15:31:43.244Z,93.93
2023-05-05T15:32:43.374Z,94.03
2023-05-05T15:33:43.219Z,92.55
2023-05-05T15:34:43.227Z,93.81
2023-05-05T15:35:43.242Z,93.37
2023-05-05T15:36:43.214Z,93.10
2023-05-05T15:37:43.195Z,93.21
2023-05-05T15:38:43.199Z,93.16
2023-05-05T15:39:43.155Z,93.10
2023-05-05T15:41:18.604Z,94.22
2023-05-05T15:41:43.340Z,94.57
2023-05-05T15:42:43.484Z,95.98
2023-05-05T15:43:43.137Z,98.77
2023-05-05T15:44:43.097Z,99.99
2023-05-05T15:45:43.084Z,99.84
2023-05-05T15:46:43.206Z,98.82
2023-05-05T15:47:43.138Z,98.01
2023-05-05T15:48:43.074Z,97.71
2023-05-05T15:49:43.082Z,97.50
2023-05-05T16:18:40.598Z,99.99
2023-05-05T16:19:41.791Z,99.99
2023-05-05T16:45:57.570Z,99.33
2023-05-05T16:46:58.218Z,99.63
2023-05-05T16:47:57.717Z,99.84
2023-05-05T16:48:57.356Z,99.84
2023-05-05T16:49:57.379Z,99.69
2023-05-05T16:50:57.334Z,99.74
2023-05-05T16:51:57.333Z,99.99
2023-05-05T16:52:57.355Z,99.99
2023-05-05T16:53:57.366Z,99.99
2023-05-05T16:54:57.284Z,99.99
2023-05-05T16:55:57.297Z,99.79
2023-05-05T16:56:57.340Z,99.69
2023-05-05T16:57:57.248Z,99.22
2023-05-05T16:58:57.238Z,99.33
2023-05-05T16:59:57.222Z,99.28
2023-05-05T17:00:57.219Z,99.38
2023-05-05T17:01:57.326Z,99.74
2023-05-05T17:02:57.282Z,99.79
2023-05-05T17:03:57.182Z,99.99
2023-05-05T17:04:57.255Z,99.99
2023-05-05T17:05:57.220Z,99.99
2023-05-05T17:06:57.151Z,99.99
2023-05-05T17:07:57.130Z,99.99
2023-05-05T17:08:57.148Z,99.99
2023-05-05T17:09:57.116Z,99.99
2023-05-05T17:10:57.104Z,99.99
2023-05-05T17:11:57.113Z,99.99
2023-05-05T17:12:57.170Z,99.99